sensor_id;sensor_type;location;lat;lon;timestamp;pressure;altitude;pressure_sealevel;temperature;humidity
64023;BME280;50264;52.088;5.296;2023-03-01T00:01:11;103196.0;;;-2.11;83.96
64023;BME280;50264;52.088;5.296;2023-03-01T00:02:49;103199.0;;;-2.12;84.38
64023;BME280;50264;52.088;5.296;2023-03-01T00:04:26;103204.0;;;-2.13;84.87
64023;BME280;50264;52.088;5.296;2023-03-01T00:07:40;103202.0;;;-2.18;84.5
64023;BME280;50264;52.088;5.296;2023-03-01T00:09:16;103205.0;;;-2.35;83.93
64023;BME280;50264;52.088;5.296;2023-03-01T00:11:02;103202.0;;;-2.35;84.51
64023;BME280;50264;52.088;5.296;2023-03-01T00:12:39;103206.0;;;-2.33;85.02
64023;BME280;50264;52.088;5.296;2023-03-01T00:15:52;103203.0;;;-2.34;84.55
64023;BME280;50264;52.088;5.296;2023-03-01T00:17:28;103206.0;;;-2.36;84.39
64023;BME280;50264;52.088;5.296;2023-03-01T00:19:05;103198.0;;;-2.25;84.71
64023;BME280;50264;52.088;5.296;2023-03-01T00:22:17;103198.0;;;-2.17;84.94
64023;BME280;50264;52.088;5.296;2023-03-01T00:23:54;103198.0;;;-2.22;84.78
64023;BME280;50264;52.088;5.296;2023-03-01T00:25:31;103199.0;;;-2.29;85.09
64023;BME280;50264;52.088;5.296;2023-03-01T00:28:43;103202.0;;;-2.36;84.51
64023;BME280;50264;52.088;5.296;2023-03-01T00:30:20;103195.0;;;-2.37;84.88
64023;BME280;50264;52.088;5.296;2023-03-01T00:31:56;103192.0;;;-2.38;84.78
64023;BME280;50264;52.088;5.296;2023-03-01T00:33:33;103194.0;;;-2.45;84.93
64023;BME280;50264;52.088;5.296;2023-03-01T00:36:46;103188.00000000001;;;-2.31;85.66
64023;BME280;50264;52.088;5.296;2023-03-01T00:38:22;103183.0;;;-2.23;84.87
64023;BME280;50264;52.088;5.296;2023-03-01T00:39:58;103175.0;;;-2.27;86.09
64023;BME280;50264;52.088;5.296;2023-03-01T00:43:10;103183.0;;;-2.38;85.13
64023;BME280;50264;52.088;5.296;2023-03-01T00:44:46;103191.00000000001;;;-2.4;85.03
64023;BME280;50264;52.088;5.296;2023-03-01T00:46:24;103188.00000000001;;;-2.45;84.83
64023;BME280;50264;52.088;5.296;2023-03-01T00:49:38;103188.00000000001;;;-2.51;85.25
64023;BME280;50264;52.088;5.296;2023-03-01T00:51:15;103189.00000000001;;;-2.51;85.5
64023;BME280;50264;52.088;5.296;2023-03-01T00:52:54;103192.0;;;-2.46;86.33
64023;BME280;50264;52.088;5.296;2023-03-01T00:54:30;103193.0;;;-2.49;85.74
64023;BME280;50264;52.088;5.296;2023-03-01T00:57:45;103194.0;;;-2.58;85.57
64023;BME280;50264;52.088;5.296;2023-03-01T00:59:22;103188.00000000001;;;-2.52;86.37
64023;BME280;50264;52.088;5.296;2023-03-01T01:00:58;103183.0;;;-2.51;86.03
64023;BME280;50264;52.088;5.296;2023-03-01T01:04:12;103176.0;;;-2.42;86.32
64023;BME280;50264;52.088;5.296;2023-03-01T01:05:49;103176.0;;;-2.39;86.52
64023;BME280;50264;52.088;5.296;2023-03-01T01:07:26;103177.0;;;-2.42;85.86
64023;BME280;50264;52.088;5.296;2023-03-01T01:09:03;103176.0;;;-2.43;85.55
64023;BME280;50264;52.088;5.296;2023-03-01T01:12:20;103177.0;;;-2.47;85.74
64023;BME280;50264;52.088;5.296;2023-03-01T01:13:57;103172.0;;;-2.5;85.76
64023;BME280;50264;52.088;5.296;2023-03-01T01:15:33;103170.0;;;-2.46;85.76
64023;BME280;50264;52.088;5.296;2023-03-01T01:18:46;103167.0;;;-2.51;86.19
64023;BME280;50264;52.088;5.296;2023-03-01T01:20:22;103165.00000000001;;;-2.53;86.1
64023;BME280;50264;52.088;5.296;2023-03-01T01:21:58;103167.0;;;-2.49;85.4
64023;BME280;50264;52.088;5.296;2023-03-01T01:25:12;103158.0;;;-2.49;86.09
64023;BME280;50264;52.088;5.296;2023-03-01T01:26:48;103157.0;;;-2.53;85.59
64023;BME280;50264;52.088;5.296;2023-03-01T01:28:25;103154.0;;;-2.5;86.25
64023;BME280;50264;52.088;5.296;2023-03-01T01:30:01;103148.0;;;-2.46;86.2
64023;BME280;50264;52.088;5.296;2023-03-01T01:33:17;103148.0;;;-2.63;85.66
64023;BME280;50264;52.088;5.296;2023-03-01T01:34:53;103145.0;;;-2.68;86.23
64023;BME280;50264;52.088;5.296;2023-03-01T01:36:30;103142.0;;;-2.76;86.03
64023;BME280;50264;52.088;5.296;2023-03-01T01:39:45;103143.0;;;-2.77;86.62
64023;BME280;50264;52.088;5.296;2023-03-01T01:41:22;103138.00000000001;;;-2.71;86.98
64023;BME280;50264;52.088;5.296;2023-03-01T01:42:59;103143.0;;;-2.65;87.16
64023;BME280;50264;52.088;5.296;2023-03-01T01:44:35;103143.0;;;-2.67;86.94
64023;BME280;50264;52.088;5.296;2023-03-01T01:47:59;103136.99999999999;;;-2.63;87.2
64023;BME280;50264;52.088;5.296;2023-03-01T01:49:42;103145.0;;;-2.68;87.13
64023;BME280;50264;52.088;5.296;2023-03-01T01:51:24;103142.0;;;-2.66;87.03
64023;BME280;50264;52.088;5.296;2023-03-01T01:53:01;103142.0;;;-2.67;87.24
64023;BME280;50264;52.088;5.296;2023-03-01T01:56:22;103132.0;;;-2.6;87.41
64023;BME280;50264;52.088;5.296;2023-03-01T01:58:05;103131.0;;;-2.59;86.79
64023;BME280;50264;52.088;5.296;2023-03-01T01:59:45;103129.0;;;-2.58;87.38
64023;BME280;50264;52.088;5.296;2023-03-01T02:01:26;103127.0;;;-2.42;86.92
64023;BME280;50264;52.088;5.296;2023-03-01T02:04:44;103127.0;;;-2.59;86.42
64023;BME280;50264;52.088;5.296;2023-03-01T02:06:28;103131.0;;;-2.7;86.44
64023;BME280;50264;52.088;5.296;2023-03-01T02:08:05;103128.0;;;-2.77;86.72
64023;BME280;50264;52.088;5.296;2023-03-01T02:09:46;103126.0;;;-2.82;86.61
64023;BME280;50264;52.088;5.296;2023-03-01T02:13:03;103117.0;;;-2.8;87.65
64023;BME280;50264;52.088;5.296;2023-03-01T02:14:40;103120.0;;;-2.74;87.69
64023;BME280;50264;52.088;5.296;2023-03-01T02:16:16;103121.0;;;-2.78;86.9
64023;BME280;50264;52.088;5.296;2023-03-01T02:19:41;103124.0;;;-2.88;86.79
64023;BME280;50264;52.088;5.296;2023-03-01T02:21:41;103127.0;;;-2.84;87.52
64023;BME280;50264;52.088;5.296;2023-03-01T02:23:24;103125.0;;;-2.75;87.77
64023;BME280;50264;52.088;5.296;2023-03-01T02:25:09;103123.0;;;-2.75;87.43
64023;BME280;50264;52.088;5.296;2023-03-01T02:26:52;103125.0;;;-2.83;86.92
64023;BME280;50264;52.088;5.296;2023-03-01T02:28:32;103117.0;;;-2.97;86.78
64023;BME280;50264;52.088;5.296;2023-03-01T02:31:47;103118.0;;;-2.91;87.35
64023;BME280;50264;52.088;5.296;2023-03-01T02:33:25;103116.00000000001;;;-2.9;87.7
64023;BME280;50264;52.088;5.296;2023-03-01T02:35:02;103118.0;;;-2.93;87.77
64023;BME280;50264;52.088;5.296;2023-03-01T02:38:18;103115.00000000001;;;-2.93;87.85
64023;BME280;50264;52.088;5.296;2023-03-01T02:39:59;103109.99999999999;;;-2.89;87.67
64023;BME280;50264;52.088;5.296;2023-03-01T02:41:38;103114.00000000001;;;-2.88;87.98
64023;BME280;50264;52.088;5.296;2023-03-01T02:43:19;103109.99999999999;;;-2.88;87.74
64023;BME280;50264;52.088;5.296;2023-03-01T02:46:42;103105.0;;;-2.88;87.8
64023;BME280;50264;52.088;5.296;2023-03-01T02:48:18;103107.0;;;-2.9;87.97
64023;BME280;50264;52.088;5.296;2023-03-01T02:49:55;103100.0;;;-2.85;88.16
64023;BME280;50264;52.088;5.296;2023-03-01T02:51:41;103096.0;;;-2.93;87.59
64023;BME280;50264;52.088;5.296;2023-03-01T02:55:11;103092.0;;;-2.96;87.54
64023;BME280;50264;52.088;5.296;2023-03-01T02:56:50;103092.0;;;-2.98;87.61
64023;BME280;50264;52.088;5.296;2023-03-01T02:58:27;103095.0;;;-3.0;87.56
64023;BME280;50264;52.088;5.296;2023-03-01T03:00:05;103090.00000000001;;;-3.02;87.71
64023;BME280;50264;52.088;5.296;2023-03-01T03:03:21;103086.99999999999;;;-3.01;87.86
64023;BME280;50264;52.088;5.296;2023-03-01T03:04:57;103089.00000000001;;;-3.1;87.77
64023;BME280;50264;52.088;5.296;2023-03-01T03:06:33;103086.99999999999;;;-3.08;87.99
64023;BME280;50264;52.088;5.296;2023-03-01T03:09:46;103083.0;;;-3.05;88.47
64023;BME280;50264;52.088;5.296;2023-03-01T03:11:22;103088.00000000001;;;-3.03;87.79
64023;BME280;50264;52.088;5.296;2023-03-01T03:13:00;103082.0;;;-3.14;87.75
64023;BME280;50264;52.088;5.296;2023-03-01T03:14:37;103084.99999999999;;;-3.14;88.08
64023;BME280;50264;52.088;5.296;2023-03-01T03:17:51;103086.99999999999;;;-3.16;88.0
64023;BME280;50264;52.088;5.296;2023-03-01T03:19:28;103091.00000000001;;;-3.05;88.56
64023;BME280;50264;52.088;5.296;2023-03-01T03:21:07;103086.99999999999;;;-2.99;88.68
64023;BME280;50264;52.088;5.296;2023-03-01T03:24:19;103083.99999999999;;;-2.97;88.18
64023;BME280;50264;52.088;5.296;2023-03-01T03:25:55;103075.0;;;-2.95;88.01
64023;BME280;50264;52.088;5.296;2023-03-01T03:27:32;103069.0;;;-2.96;87.37
64023;BME280;50264;52.088;5.296;2023-03-01T03:30:44;103066.00000000001;;;-2.96;87.75
64023;BME280;50264;52.088;5.296;2023-03-01T03:32:20;103063.00000000001;;;-2.94;87.66
64023;BME280;50264;52.088;5.296;2023-03-01T03:33:56;103059.99999999999;;;-2.97;87.65
64023;BME280;50264;52.088;5.296;2023-03-01T03:35:37;103059.99999999999;;;-2.94;87.92
64023;BME280;50264;52.088;5.296;2023-03-01T03:38:52;103067.0;;;-3.0;87.67
64023;BME280;50264;52.088;5.296;2023-03-01T03:40:30;103067.0;;;-3.04;87.71
64023;BME280;50264;52.088;5.296;2023-03-01T03:42:08;103068.0;;;-3.03;87.84
64023;BME280;50264;52.088;5.296;2023-03-01T03:45:20;103067.0;;;-2.67;87.7
64023;BME280;50264;52.088;5.296;2023-03-01T03:46:56;103074.0;;;-2.53;87.02
64023;BME280;50264;52.088;5.296;2023-03-01T03:48:33;103073.0;;;-2.61;87.19
64023;BME280;50264;52.088;5.296;2023-03-01T03:50:10;103071.0;;;-2.71;87.73
64023;BME280;50264;52.088;5.296;2023-03-01T03:53:26;103070.0;;;-2.63;87.75
64023;BME280;50264;52.088;5.296;2023-03-01T03:55:04;103066.00000000001;;;-2.75;88.25
64023;BME280;50264;52.088;5.296;2023-03-01T03:56:40;103067.0;;;-2.82;87.88
64023;BME280;50264;52.088;5.296;2023-03-01T03:59:54;103061.99999999999;;;-2.83;88.27
64023;BME280;50264;52.088;5.296;2023-03-01T04:01:31;103059.99999999999;;;-2.81;87.81
64023;BME280;50264;52.088;5.296;2023-03-01T04:03:07;103058.99999999999;;;-2.71;87.67
64023;BME280;50264;52.088;5.296;2023-03-01T04:04:45;103053.0;;;-2.82;87.17
64023;BME280;50264;52.088;5.296;2023-03-01T04:07:59;103059.99999999999;;;-2.84;87.45
64023;BME280;50264;52.088;5.296;2023-03-01T04:09:35;103061.99999999999;;;-2.88;88.23
64023;BME280;50264;52.088;5.296;2023-03-01T04:11:11;103066.00000000001;;;-2.96;87.44
64023;BME280;50264;52.088;5.296;2023-03-01T04:14:24;103061.99999999999;;;-3.05;88.07
64023;BME280;50264;52.088;5.296;2023-03-01T04:16:01;103065.00000000001;;;-3.07;88.57
64023;BME280;50264;52.088;5.296;2023-03-01T04:17:37;103064.00000000001;;;-3.04;88.26
64023;BME280;50264;52.088;5.296;2023-03-01T04:20:49;103063.00000000001;;;-3.08;88.39
64023;BME280;50264;52.088;5.296;2023-03-01T04:22:26;103066.00000000001;;;-3.1;88.51
64023;BME280;50264;52.088;5.296;2023-03-01T04:24:03;103058.99999999999;;;-3.13;88.19
64023;BME280;50264;52.088;5.296;2023-03-01T04:25:41;103067.0;;;-3.17;88.16
64023;BME280;50264;52.088;5.296;2023-03-01T04:28:54;103066.00000000001;;;-3.16;88.33
64023;BME280;50264;52.088;5.296;2023-03-01T04:30:30;103066.00000000001;;;-3.14;88.94
64023;BME280;50264;52.088;5.296;2023-03-01T04:35:20;103066.00000000001;;;-2.78;87.56
64023;BME280;50264;52.088;5.296;2023-03-01T04:36:56;103059.99999999999;;;-2.92;87.79
64023;BME280;50264;52.088;5.296;2023-03-01T04:38:33;103069.0;;;-3.03;88.04
64023;BME280;50264;52.088;5.296;2023-03-01T04:41:46;103068.0;;;-3.13;87.98
64023;BME280;50264;52.088;5.296;2023-03-01T04:43:23;103064.00000000001;;;-3.05;88.72
64023;BME280;50264;52.088;5.296;2023-03-01T04:44:59;103058.0;;;-3.1;88.46
64023;BME280;50264;52.088;5.296;2023-03-01T04:46:36;103054.0;;;-3.16;88.23
64023;BME280;50264;52.088;5.296;2023-03-01T04:49:49;103056.0;;;-3.14;88.67
64023;BME280;50264;52.088;5.296;2023-03-01T04:51:25;103057.0;;;-3.12;88.77
64023;BME280;50264;52.088;5.296;2023-03-01T04:53:01;103057.0;;;-3.2;88.03
64023;BME280;50264;52.088;5.296;2023-03-01T04:56:15;103049.0;;;-3.38;87.91
64023;BME280;50264;52.088;5.296;2023-03-01T04:57:52;103045.0;;;-3.4;88.23
64023;BME280;50264;52.088;5.296;2023-03-01T04:59:29;103040.00000000001;;;-3.44;88.57
64023;BME280;50264;52.088;5.296;2023-03-01T05:02:48;103041.00000000001;;;-3.49;88.35
64023;BME280;50264;52.088;5.296;2023-03-01T05:04:24;103033.99999999999;;;-3.49;88.56
64023;BME280;50264;52.088;5.296;2023-03-01T05:06:00;103034.99999999999;;;-3.5;88.04
64023;BME280;50264;52.088;5.296;2023-03-01T05:07:36;103032.0;;;-3.43;88.74
64023;BME280;50264;52.088;5.296;2023-03-01T05:10:50;103033.0;;;-3.42;88.46
64023;BME280;50264;52.088;5.296;2023-03-01T05:12:28;103031.0;;;-3.43;88.17
64023;BME280;50264;52.088;5.296;2023-03-01T05:14:06;103022.0;;;-3.4;88.6
64023;BME280;50264;52.088;5.296;2023-03-01T05:17:18;103025.0;;;-3.42;88.41
64023;BME280;50264;52.088;5.296;2023-03-01T05:18:54;103021.0;;;-3.3;88.49
64023;BME280;50264;52.088;5.296;2023-03-01T05:20:30;103014.00000000001;;;-3.21;88.14
64023;BME280;50264;52.088;5.296;2023-03-01T05:23:43;103017.0;;;-3.32;88.09
64023;BME280;50264;52.088;5.296;2023-03-01T05:25:20;103005.0;;;-3.39;87.79
64023;BME280;50264;52.088;5.296;2023-03-01T05:26:58;103008.0;;;-3.51;88.34
64023;BME280;50264;52.088;5.296;2023-03-01T05:28:35;103003.0;;;-3.59;88.03
64023;BME280;50264;52.088;5.296;2023-03-01T05:31:48;103003.0;;;-3.57;88.66
64023;BME280;50264;52.088;5.296;2023-03-01T05:33:25;102995.0;;;-3.57;88.4
64023;BME280;50264;52.088;5.296;2023-03-01T05:35:03;102996.0;;;-3.63;88.2
64023;BME280;50264;52.088;5.296;2023-03-01T05:38:16;102993.0;;;-3.61;89.12
64023;BME280;50264;52.088;5.296;2023-03-01T05:39:52;102994.0;;;-3.66;88.61
64023;BME280;50264;52.088;5.296;2023-03-01T05:41:28;102993.0;;;-3.68;88.61
64023;BME280;50264;52.088;5.296;2023-03-01T05:43:05;102983.0;;;-3.66;88.94
64023;BME280;50264;52.088;5.296;2023-03-01T05:46:18;102983.99999999999;;;-3.7;88.66
64023;BME280;50264;52.088;5.296;2023-03-01T05:47:54;102975.0;;;-3.75;88.53
64023;BME280;50264;52.088;5.296;2023-03-01T05:49:31;102976.0;;;-3.74;88.37
64023;BME280;50264;52.088;5.296;2023-03-01T05:52:44;102979.0;;;-3.8;88.13
64023;BME280;50264;52.088;5.296;2023-03-01T05:54:22;102978.0;;;-3.85;88.24
64023;BME280;50264;52.088;5.296;2023-03-01T05:55:59;102982.0;;;-3.92;88.01
64023;BME280;50264;52.088;5.296;2023-03-01T06:00:48;102979.0;;;-3.88;88.42
64023;BME280;50264;52.088;5.296;2023-03-01T06:02:24;102976.0;;;-3.93;88.35
64023;BME280;50264;52.088;5.296;2023-03-01T06:04:01;102971.0;;;-3.95;88.55
64023;BME280;50264;52.088;5.296;2023-03-01T06:07:15;102975.0;;;-3.93;88.56
64023;BME280;50264;52.088;5.296;2023-03-01T06:08:51;102977.0;;;-3.87;88.89
64023;BME280;50264;52.088;5.296;2023-03-01T06:10:29;102983.0;;;-3.75;88.7
64023;BME280;50264;52.088;5.296;2023-03-01T06:13:43;102976.0;;;-3.84;87.95
64023;BME280;50264;52.088;5.296;2023-03-01T06:15:20;102973.0;;;-3.84;88.1
64023;BME280;50264;52.088;5.296;2023-03-01T06:16:57;102974.0;;;-3.87;88.06
64023;BME280;50264;52.088;5.296;2023-03-01T06:20:13;102978.0;;;-3.87;88.06
64023;BME280;50264;52.088;5.296;2023-03-01T06:21:50;102980.0;;;-3.88;87.84
64023;BME280;50264;52.088;5.296;2023-03-01T06:23:26;102981.0;;;-3.92;88.07
64023;BME280;50264;52.088;5.296;2023-03-01T06:25:03;102986.99999999999;;;-3.71;88.27
64023;BME280;50264;52.088;5.296;2023-03-01T06:28:16;102989.00000000001;;;-3.62;88.25
64023;BME280;50264;52.088;5.296;2023-03-01T06:29:53;102983.0;;;-3.76;87.74
64023;BME280;50264;52.088;5.296;2023-03-01T06:31:29;102981.0;;;-3.83;87.44
64023;BME280;50264;52.088;5.296;2023-03-01T06:34:41;102982.0;;;-3.93;87.69
64023;BME280;50264;52.088;5.296;2023-03-01T06:36:17;102982.0;;;-3.99;87.96
64023;BME280;50264;52.088;5.296;2023-03-01T06:37:53;102983.0;;;-3.94;88.06
64023;BME280;50264;52.088;5.296;2023-03-01T06:41:07;102984.99999999999;;;-4.07;87.9
64023;BME280;50264;52.088;5.296;2023-03-01T06:42:47;102983.99999999999;;;-4.09;88.11
64023;BME280;50264;52.088;5.296;2023-03-01T06:44:26;102986.99999999999;;;-4.06;88.45
64023;BME280;50264;52.088;5.296;2023-03-01T06:46:04;102990.00000000001;;;-4.09;87.89
64023;BME280;50264;52.088;5.296;2023-03-01T06:49:17;102989.00000000001;;;-4.09;88.31
64023;BME280;50264;52.088;5.296;2023-03-01T06:50:52;102983.0;;;-4.09;88.34
64023;BME280;50264;52.088;5.296;2023-03-01T06:52:30;102988.00000000001;;;-4.05;88.14
64023;BME280;50264;52.088;5.296;2023-03-01T06:55:43;102984.99999999999;;;-4.01;88.13
64023;BME280;50264;52.088;5.296;2023-03-01T06:57:19;102984.99999999999;;;-4.06;87.78
64023;BME280;50264;52.088;5.296;2023-03-01T06:58:55;102984.99999999999;;;-4.06;88.13
64023;BME280;50264;52.088;5.296;2023-03-01T07:00:32;102983.99999999999;;;-4.01;88.38
64023;BME280;50264;52.088;5.296;2023-03-01T07:03:47;102978.0;;;-3.96;88.72
64023;BME280;50264;52.088;5.296;2023-03-01T07:05:23;102983.0;;;-3.92;88.0
64023;BME280;50264;52.088;5.296;2023-03-01T07:06:59;102983.0;;;-3.9;88.12
64023;BME280;50264;52.088;5.296;2023-03-01T07:10:12;102979.0;;;-3.9;88.62
64023;BME280;50264;52.088;5.296;2023-03-01T07:11:48;102979.0;;;-3.89;88.21
64023;BME280;50264;52.088;5.296;2023-03-01T07:13:26;102977.0;;;-3.85;87.94
64023;BME280;50264;52.088;5.296;2023-03-01T07:16:40;102976.0;;;-3.8;88.34
64023;BME280;50264;52.088;5.296;2023-03-01T07:18:16;102984.99999999999;;;-3.76;88.46
64023;BME280;50264;52.088;5.296;2023-03-01T07:19:52;102990.00000000001;;;-3.73;88.45
64023;BME280;50264;52.088;5.296;2023-03-01T07:21:29;102984.99999999999;;;-3.7;88.16
64023;BME280;50264;52.088;5.296;2023-03-01T07:24:43;102982.0;;;-3.68;88.01
64023;BME280;50264;52.088;5.296;2023-03-01T07:26:19;102986.99999999999;;;-3.67;87.91
64023;BME280;50264;52.088;5.296;2023-03-01T07:27:55;102990.00000000001;;;-3.6;88.31
64023;BME280;50264;52.088;5.296;2023-03-01T07:31:07;102991.00000000001;;;-3.59;88.07
64023;BME280;50264;52.088;5.296;2023-03-01T07:32:44;102994.0;;;-3.53;87.87
64023;BME280;50264;52.088;5.296;2023-03-01T07:34:20;102990.00000000001;;;-3.44;88.08
64023;BME280;50264;52.088;5.296;2023-03-01T07:37:33;102990.00000000001;;;-3.46;87.79
64023;BME280;50264;52.088;5.296;2023-03-01T07:39:09;102996.0;;;-3.41;88.14
64023;BME280;50264;52.088;5.296;2023-03-01T07:40:46;102996.0;;;-3.49;88.05
64023;BME280;50264;52.088;5.296;2023-03-01T07:42:23;102995.0;;;-3.4;88.57
64023;BME280;50264;52.088;5.296;2023-03-01T07:45:35;102996.0;;;-3.27;88.78
64023;BME280;50264;52.088;5.296;2023-03-01T07:47:11;102999.0;;;-3.23;88.83
64023;BME280;50264;52.088;5.296;2023-03-01T07:48:47;103000.0;;;-3.13;88.62
64023;BME280;50264;52.088;5.296;2023-03-01T07:51:59;103002.0;;;-2.83;88.75
64023;BME280;50264;52.088;5.296;2023-03-01T07:53:36;103005.0;;;-2.63;88.5
64023;BME280;50264;52.088;5.296;2023-03-01T07:55:13;102999.0;;;-2.41;88.44
64023;BME280;50264;52.088;5.296;2023-03-01T07:58:26;102999.0;;;-2.16;88.04
64023;BME280;50264;52.088;5.296;2023-03-01T08:00:04;102996.0;;;-2.24;87.35
64023;BME280;50264;52.088;5.296;2023-03-01T08:01:40;102996.0;;;-2.06;87.88
64023;BME280;50264;52.088;5.296;2023-03-01T08:03:17;102994.0;;;-2.01;87.11
64023;BME280;50264;52.088;5.296;2023-03-01T08:06:29;102999.0;;;-2.06;86.86
64023;BME280;50264;52.088;5.296;2023-03-01T08:08:05;103005.0;;;-2.04;87.18
64023;BME280;50264;52.088;5.296;2023-03-01T08:09:41;102996.0;;;-1.98;87.42
64023;BME280;50264;52.088;5.296;2023-03-01T08:12:54;102997.0;;;-2.04;87.63
64023;BME280;50264;52.088;5.296;2023-03-01T08:14:30;102996.0;;;-1.95;88.17
64023;BME280;50264;52.088;5.296;2023-03-01T08:16:09;102995.0;;;-1.79;88.36
64023;BME280;50264;52.088;5.296;2023-03-01T08:19:25;102993.0;;;-1.64;88.38
64023;BME280;50264;52.088;5.296;2023-03-01T08:21:03;102992.0;;;-1.52;88.27
64023;BME280;50264;52.088;5.296;2023-03-01T08:22:40;102992.0;;;-1.31;88.7
64023;BME280;50264;52.088;5.296;2023-03-01T08:24:16;102980.0;;;-1.09;88.79
64023;BME280;50264;52.088;5.296;2023-03-01T08:27:28;102981.0;;;-0.9;88.32
64023;BME280;50264;52.088;5.296;2023-03-01T08:29:05;102979.0;;;-0.86;88.73
64023;BME280;50264;52.088;5.296;2023-03-01T08:30:41;102979.0;;;-0.77;88.43
64023;BME280;50264;52.088;5.296;2023-03-01T08:33:55;102989.00000000001;;;-0.61;88.4
64023;BME280;50264;52.088;5.296;2023-03-01T08:35:33;102983.99999999999;;;-0.46;88.47
64023;BME280;50264;52.088;5.296;2023-03-01T08:37:09;102988.00000000001;;;-0.36;88.27
64023;BME280;50264;52.088;5.296;2023-03-01T08:40:22;102984.99999999999;;;-0.22;87.98
64023;BME280;50264;52.088;5.296;2023-03-01T08:41:58;102980.0;;;-0.08;88.02
64023;BME280;50264;52.088;5.296;2023-03-01T08:43:34;102974.0;;;0.18;87.09
64023;BME280;50264;52.088;5.296;2023-03-01T08:45:11;102971.0;;;0.37;86.42
64023;BME280;50264;52.088;5.296;2023-03-01T08:48:23;102965.00000000001;;;0.62;85.36
64023;BME280;50264;52.088;5.296;2023-03-01T08:50:01;102968.0;;;0.83;86.0
64023;BME280;50264;52.088;5.296;2023-03-01T08:51:38;102967.0;;;1.02;84.26
64023;BME280;50264;52.088;5.296;2023-03-01T08:54:51;102964.00000000001;;;1.21;83.73
64023;BME280;50264;52.088;5.296;2023-03-01T08:56:27;102965.00000000001;;;1.44;83.6
64023;BME280;50264;52.088;5.296;2023-03-01T08:58:03;102955.0;;;1.62;82.53
64023;BME280;50264;52.088;5.296;2023-03-01T09:01:17;102951.0;;;1.77;81.27
64023;BME280;50264;52.088;5.296;2023-03-01T09:02:55;102943.0;;;1.97;79.95
64023;BME280;50264;52.088;5.296;2023-03-01T09:04:31;102942.0;;;2.14;78.92
64023;BME280;50264;52.088;5.296;2023-03-01T09:06:08;102947.0;;;2.38;77.08
64023;BME280;50264;52.088;5.296;2023-03-01T09:09:20;102940.00000000001;;;2.54;77.12
64023;BME280;50264;52.088;5.296;2023-03-01T09:10:56;102942.0;;;2.7;72.61
64023;BME280;50264;52.088;5.296;2023-03-01T09:12:33;102934.99999999999;;;2.92;74.45
64023;BME280;50264;52.088;5.296;2023-03-01T09:15:45;102931.0;;;3.13;75.5
64023;BME280;50264;52.088;5.296;2023-03-01T09:17:21;102932.0;;;3.19;75.48
64023;BME280;50264;52.088;5.296;2023-03-01T09:18:57;102933.0;;;3.48;73.78
64023;BME280;50264;52.088;5.296;2023-03-01T09:22:09;102928.0;;;3.54;68.97
64023;BME280;50264;52.088;5.296;2023-03-01T09:23:47;102920.0;;;3.74;70.58
64023;BME280;50264;52.088;5.296;2023-03-01T09:25:24;102925.0;;;3.89;70.09
64023;BME280;50264;52.088;5.296;2023-03-01T09:27:00;102913.00000000001;;;4.09;69.11
64023;BME280;50264;52.088;5.296;2023-03-01T09:30:14;102914.00000000001;;;4.14;68.53
64023;BME280;50264;52.088;5.296;2023-03-01T09:31:49;102904.0;;;4.21;66.83
64023;BME280;50264;52.088;5.296;2023-03-01T09:33:26;102907.0;;;4.28;66.39
64023;BME280;50264;52.088;5.296;2023-03-01T09:36:40;102900.0;;;4.37;63.76
64023;BME280;50264;52.088;5.296;2023-03-01T09:38:16;102899.0;;;4.42;61.83
64023;BME280;50264;52.088;5.296;2023-03-01T09:39:52;102899.0;;;4.57;62.04
64023;BME280;50264;52.088;5.296;2023-03-01T09:43:40;102893.0;;;4.7;61.8
64023;BME280;50264;52.088;5.296;2023-03-01T09:45:28;102894.0;;;4.86;62.45
64023;BME280;50264;52.088;5.296;2023-03-01T09:47:12;102896.0;;;4.82;62.13
64023;BME280;50264;52.088;5.296;2023-03-01T09:48:57;102895.0;;;4.95;62.26
64023;BME280;50264;52.088;5.296;2023-03-01T09:50:39;102892.0;;;5.05;60.46
64023;BME280;50264;52.088;5.296;2023-03-01T09:52:23;102890.00000000001;;;5.07;60.57
64023;BME280;50264;52.088;5.296;2023-03-01T09:55:44;102890.00000000001;;;5.21;61.27
64023;BME280;50264;52.088;5.296;2023-03-01T09:57:28;102890.00000000001;;;5.12;59.5
64023;BME280;50264;52.088;5.296;2023-03-01T09:59:14;102896.0;;;5.28;59.18
64023;BME280;50264;52.088;5.296;2023-03-01T10:01:03;102897.0;;;5.29;60.3
64023;BME280;50264;52.088;5.296;2023-03-01T10:02:49;102893.0;;;5.39;58.48
64023;BME280;50264;52.088;5.296;2023-03-01T10:06:20;102899.0;;;5.59;58.28
64023;BME280;50264;52.088;5.296;2023-03-01T10:08:06;102901.0;;;5.7;59.21
64023;BME280;50264;52.088;5.296;2023-03-01T10:10:05;102898.0;;;5.81;59.2
64023;BME280;50264;52.088;5.296;2023-03-01T10:11:44;102903.0;;;5.72;55.11
64023;BME280;50264;52.088;5.296;2023-03-01T10:13:24;102900.0;;;5.77;58.48
64023;BME280;50264;52.088;5.296;2023-03-01T10:15:06;102904.0;;;5.71;57.91
64023;BME280;50264;52.088;5.296;2023-03-01T10:18:30;102893.0;;;5.66;57.16
64023;BME280;50264;52.088;5.296;2023-03-01T10:20:21;102890.00000000001;;;5.7;55.63
64023;BME280;50264;52.088;5.296;2023-03-01T10:22:03;102880.0;;;5.87;56.86
64023;BME280;50264;52.088;5.296;2023-03-01T10:23:46;102883.0;;;6.01;54.86
64023;BME280;50264;52.088;5.296;2023-03-01T10:27:23;102878.0;;;6.09;54.05
64023;BME280;50264;52.088;5.296;2023-03-01T10:29:02;102880.0;;;6.25;54.86
64023;BME280;50264;52.088;5.296;2023-03-01T10:30:40;102878.0;;;6.23;55.81
64023;BME280;50264;52.088;5.296;2023-03-01T10:32:17;102870.0;;;6.33;53.97
64023;BME280;50264;52.088;5.296;2023-03-01T10:33:54;102870.0;;;6.5;54.25
64023;BME280;50264;52.088;5.296;2023-03-01T10:37:11;102873.0;;;6.45;51.52
64023;BME280;50264;52.088;5.296;2023-03-01T10:38:50;102875.0;;;6.42;55.32
64023;BME280;50264;52.088;5.296;2023-03-01T10:43:56;102869.0;;;6.58;52.67
64023;BME280;50264;52.088;5.296;2023-03-01T10:45:35;102867.0;;;6.71;53.46
64023;BME280;50264;52.088;5.296;2023-03-01T10:47:15;102863.00000000001;;;6.51;52.34
64023;BME280;50264;52.088;5.296;2023-03-01T10:49:25;102859.99999999999;;;6.61;50.25